Time;durP1;ratioP1;P1;durP2;ratioP2;P2;SDS_P1;SDS_P2;PMS_P1;PMS_P2;Temp;Humidity;BMP_temperature;BMP_pressure;BME280_temperature;BME280_humidity;BME280_pressure;Samples;Min_cycle;Max_cycle;Signal;HPM_P1;HPM_P2
2022/05/07 00:20:07;;;;;;;23.75;18.50;;;;;;;;;;6111710;23;20034;-86
2022/05/07 00:22:33;;;;;;;25.10;17.83;;;;;;;;;;6085809;23;20549;-84
2022/05/07 00:24:59;;;;;;;24.95;19.50;;;;;;;;;;6085562;23;20506;-84
2022/05/07 00:27:25;;;;;;;27.15;20.25;;;;;;;;;;6113670;23;20719;-84
2022/05/07 00:29:51;;;;;;;26.15;19.33;;;;;;;;;;6086218;23;20014;-85
2022/05/07 00:32:17;;;;;;;29.40;19.65;;;;;;;;;;6110788;23;20604;-86
2022/05/07 00:34:43;;;;;;;28.13;19.77;;;;;;;;;;6086853;23;20014;-86
2022/05/07 00:37:09;;;;;;;28.42;19.40;;;;;;;;;;6088001;23;20017;-86
2022/05/07 00:39:35;;;;;;;28.80;19.80;;;;;;;;;;6087125;23;20347;-85
2022/05/07 00:42:03;;;;;;;26.73;19.73;;;;;;;;;;6087890;23;20025;-85
2022/05/07 00:44:29;;;;;;;32.97;23.05;;;;;;;;;;6093109;23;20014;-86
2022/05/07 00:46:59;;;;;;;32.22;21.15;;;;;;;;;;6087627;23;20069;-83
2022/05/07 00:49:25;;;;;;;25.50;19.75;;;;;;;;;;6089701;23;20105;-86
2022/05/07 00:51:51;;;;;;;30.25;21.38;;;;;;;;;;6087991;23;20032;-86
2022/05/07 00:54:17;;;;;;;28.23;21.77;;;;;;;;;;6085445;23;20053;-86
2022/05/07 00:56:43;;;;;;;29.40;22.63;;;;;;;;;;6114461;23;20045;-86
2022/05/07 00:59:10;;;;;;;29.83;22.55;;;;;;;;;;6086774;23;20392;-84
2022/05/07 01:01:36;;;;;;;30.73;23.35;;;;;;;;;;6089025;23;20014;-86
2022/05/07 01:04:02;;;;;;;29.63;24.23;;;;;;;;;;6086289;23;20053;-85
2022/05/07 01:06:30;;;;;;;32.13;24.20;;;;;;;;;;6087721;23;20073;-85
2022/05/07 01:08:56;;;;;;;30.80;23.80;;;;;;;;;;6086908;23;20169;-86
2022/05/07 01:11:22;;;;;;;32.10;24.75;;;;;;;;;;6089955;23;20018;-85
2022/05/07 01:13:48;;;;;;;36.60;24.38;;;;;;;;;;6064371;23;20014;-85
2022/05/07 01:16:15;;;;;;;32.83;24.38;;;;;;;;;;6092109;23;20022;-84
2022/05/07 01:18:41;;;;;;;35.80;24.77;;;;;;;;;;6113201;23;20029;-84
2022/05/07 01:21:17;;;;;;;32.22;23.88;;;;;;;;;;6114945;23;20033;-86
2022/05/07 01:23:44;;;;;;;36.33;25.63;;;;;;;;;;6087716;23;20024;-85
2022/05/07 01:26:10;;;;;;;36.13;25.85;;;;;;;;;;6089090;23;20514;-85
2022/05/07 01:28:37;;;;;;;32.05;24.52;;;;;;;;;;6090068;23;20018;-86
2022/05/07 01:31:03;;;;;;;34.75;25.88;;;;;;;;;;6090413;23;20024;-84
2022/05/07 01:33:33;;;;;;;36.38;25.77;;;;;;;;;;6089404;23;20010;-86
2022/05/07 01:36:00;;;;;;;33.08;26.17;;;;;;;;;;6089958;23;20128;-85
2022/05/07 01:38:26;;;;;;;33.35;24.75;;;;;;;;;;6088051;23;20014;-84
2022/05/07 01:40:53;;;;;;;34.42;25.88;;;;;;;;;;6114330;23;20022;-84
2022/05/07 01:43:19;;;;;;;33.65;24.10;;;;;;;;;;6086883;23;20339;-86
2022/05/07 01:45:45;;;;;;;34.53;24.15;;;;;;;;;;6093703;23;20021;-84
2022/05/07 01:48:11;;;;;;;32.63;24.45;;;;;;;;;;6089747;23;20072;-84
2022/05/07 01:50:38;;;;;;;34.95;25.38;;;;;;;;;;6092473;23;20021;-86
2022/05/07 01:53:08;;;;;;;32.08;24.90;;;;;;;;;;6090261;23;20021;-84
2022/05/07 01:55:35;;;;;;;36.47;25.27;;;;;;;;;;6090202;23;20014;-84
2022/05/07 01:58:02;;;;;;;35.65;24.83;;;;;;;;;;6088005;23;20202;-85
2022/05/07 02:00:29;;;;;;;33.38;24.70;;;;;;;;;;6087723;23;20018;-85
2022/05/07 02:02:56;;;;;;;32.83;25.60;;;;;;;;;;6089289;23;20073;-84
2022/05/07 02:05:22;;;;;;;33.60;25.15;;;;;;;;;;6090935;23;20020;-85
2022/05/07 02:07:48;;;;;;;34.78;25.90;;;;;;;;;;6088372;23;20459;-86
2022/05/07 02:10:15;;;;;;;32.60;24.33;;;;;;;;;;6088157;23;20100;-86
2022/05/07 02:12:41;;;;;;;32.33;24.67;;;;;;;;;;6088052;23;20022;-86
2022/05/07 02:15:07;;;;;;;34.42;24.88;;;;;;;;;;6064492;23;20029;-84
2022/05/07 02:17:33;;;;;;;31.45;24.75;;;;;;;;;;6089742;23;20105;-86
2022/05/07 02:19:59;;;;;;;33.30;25.15;;;;;;;;;;6086199;23;20029;-85
2022/05/07 02:22:25;;;;;;;30.15;24.42;;;;;;;;;;6063466;23;20018;-86
2022/05/07 02:24:51;;;;;;;30.58;25.10;;;;;;;;;;6090172;23;20040;-86
2022/05/07 02:27:18;;;;;;;30.35;22.92;;;;;;;;;;6091041;23;20010;-85
2022/05/07 02:29:44;;;;;;;31.83;24.52;;;;;;;;;;6089663;23;20021;-84
2022/05/07 02:32:13;;;;;;;33.47;24.73;;;;;;;;;;6090238;23;20101;-86
2022/05/07 02:34:40;;;;;;;35.03;25.67;;;;;;;;;;6089738;23;20014;-85
2022/05/07 02:37:06;;;;;;;34.42;26.15;;;;;;;;;;6089202;23;20017;-85
2022/05/07 02:39:32;;;;;;;33.05;25.25;;;;;;;;;;6088572;23;20040;-84
2022/05/07 02:44:44;;;;;;;35.00;26.08;;;;;;;;;;6071732;23;20500;-84
2022/05/07 02:47:10;;;;;;;34.30;25.95;;;;;;;;;;6087779;23;20009;-85
2022/05/07 02:49:36;;;;;;;36.33;25.95;;;;;;;;;;6091114;23;20021;-86
2022/05/07 02:52:02;;;;;;;38.70;26.95;;;;;;;;;;6087779;23;20017;-85
2022/05/07 02:54:28;;;;;;;36.72;25.52;;;;;;;;;;6089118;23;20210;-84
2022/05/07 02:56:55;;;;;;;32.75;26.65;;;;;;;;;;6088532;23;20116;-85
2022/05/07 02:59:21;;;;;;;35.13;27.05;;;;;;;;;;6090476;23;20024;-85
2022/05/07 03:01:48;;;;;;;39.78;27.55;;;;;;;;;;6113718;23;20074;-85
2022/05/07 03:04:14;;;;;;;37.50;27.17;;;;;;;;;;6086050;23;20018;-86
2022/05/07 03:06:40;;;;;;;37.45;26.90;;;;;;;;;;6089580;23;20014;-83
2022/05/07 03:09:06;;;;;;;33.70;26.58;;;;;;;;;;6088280;23;20041;-86
2022/05/07 03:11:34;;;;;;;37.83;26.55;;;;;;;;;;6089517;23;20018;-86
2022/05/07 03:14:00;;;;;;;38.15;27.98;;;;;;;;;;6087271;23;20096;-84
2022/05/07 03:16:27;;;;;;;38.38;27.20;;;;;;;;;;6113566;23;20025;-85
2022/05/07 03:18:53;;;;;;;35.10;27.02;;;;;;;;;;6086500;23;20018;-86
2022/05/07 03:21:19;;;;;;;35.92;28.08;;;;;;;;;;6064900;23;20022;-86
2022/05/07 03:23:46;;;;;;;36.15;27.45;;;;;;;;;;6085019;23;20018;-86
2022/05/07 03:26:12;;;;;;;34.70;27.40;;;;;;;;;;6089249;23;20049;-85
2022/05/07 03:28:38;;;;;;;36.90;27.20;;;;;;;;;;6090504;23;20010;-86
2022/05/07 03:31:05;;;;;;;36.97;27.08;;;;;;;;;;6064756;23;20013;-86
2022/05/07 03:33:31;;;;;;;39.78;28.67;;;;;;;;;;6068656;23;20025;-85
2022/05/07 03:35:58;;;;;;;37.63;28.30;;;;;;;;;;6090405;23;20092;-86
2022/05/07 03:38:24;;;;;;;38.40;28.10;;;;;;;;;;6086550;23;20489;-85
2022/05/07 03:40:50;;;;;;;41.70;29.63;;;;;;;;;;6088777;23;20014;-85
2022/05/07 03:43:16;;;;;;;35.38;28.20;;;;;;;;;;6087174;23;20022;-86
2022/05/07 03:45:43;;;;;;;39.17;28.77;;;;;;;;;;6084525;23;20093;-86
2022/05/07 03:48:09;;;;;;;36.72;28.63;;;;;;;;;;6088532;23;20014;-84
2022/05/07 03:50:35;;;;;;;40.35;27.70;;;;;;;;;;6088719;23;20518;-84
2022/05/07 03:55:47;;;;;;;35.15;26.85;;;;;;;;;;6111600;23;20025;-86
2022/05/07 03:58:17;;;;;;;39.88;29.95;;;;;;;;;;6111080;23;20037;-85
2022/05/07 04:00:43;;;;;;;35.60;28.13;;;;;;;;;;6088898;23;20017;-84
2022/05/07 04:03:10;;;;;;;35.78;28.73;;;;;;;;;;6090759;23;20089;-85
2022/05/07 04:05:36;;;;;;;39.00;28.23;;;;;;;;;;6090609;23;20022;-86
2022/05/07 04:08:02;;;;;;;39.53;28.92;;;;;;;;;;6069422;23;20010;-86
2022/05/07 04:10:28;;;;;;;37.75;28.13;;;;;;;;;;6089973;23;20018;-86
2022/05/07 04:12:55;;;;;;;37.55;29.38;;;;;;;;;;6089214;23;20024;-86
2022/05/07 04:15:21;;;;;;;34.28;28.42;;;;;;;;;;6089069;23;20018;-87
2022/05/07 04:17:48;;;;;;;38.72;27.95;;;;;;;;;;6090191;23;20073;-86
2022/05/07 04:20:14;;;;;;;38.58;29.45;;;;;;;;;;6089587;23;20026;-85
2022/05/07 04:22:40;;;;;;;36.00;28.20;;;;;;;;;;6089849;23;20017;-84
2022/05/07 04:25:07;;;;;;;39.88;29.10;;;;;;;;;;6090874;23;20029;-84
2022/05/07 04:27:33;;;;;;;42.25;29.60;;;;;;;;;;6091503;23;20069;-84
2022/05/07 04:30:00;;;;;;;43.60;29.38;;;;;;;;;;6086841;23;20359;-86
2022/05/07 04:32:26;;;;;;;41.92;29.52;;;;;;;;;;6088454;23;20017;-85
2022/05/07 04:34:52;;;;;;;35.72;27.83;;;;;;;;;;6089597;23;20014;-87
2022/05/07 04:37:19;;;;;;;34.88;28.58;;;;;;;;;;6090544;23;20530;-86
2022/05/07 04:39:47;;;;;;;40.53;30.23;;;;;;;;;;6089827;23;20377;-86
2022/05/07 04:42:13;;;;;;;39.25;30.40;;;;;;;;;;6093679;23;20544;-87
2022/05/07 04:44:39;;;;;;;38.65;30.25;;;;;;;;;;6089949;23;20468;-86
2022/05/07 04:47:05;;;;;;;37.75;29.70;;;;;;;;;;6091332;23;20077;-86
2022/05/07 04:49:32;;;;;;;43.40;29.67;;;;;;;;;;6088054;23;20073;-85
2022/05/07 04:52:01;;;;;;;37.33;29.42;;;;;;;;;;6089092;23;20014;-85
2022/05/07 04:54:27;;;;;;;40.28;31.25;;;;;;;;;;6091380;23;20384;-86
2022/05/07 04:56:54;;;;;;;41.78;30.77;;;;;;;;;;6090465;23;20069;-86
2022/05/07 04:59:21;;;;;;;41.72;30.58;;;;;;;;;;6088320;23;20451;-84
2022/05/07 05:01:47;;;;;;;41.40;31.13;;;;;;;;;;6113159;23;20010;-86
2022/05/07 05:04:14;;;;;;;37.10;29.48;;;;;;;;;;6091106;23;20452;-86
2022/05/07 05:06:40;;;;;;;44.75;31.08;;;;;;;;;;6064784;23;20014;-85
2022/05/07 05:09:07;;;;;;;39.35;31.25;;;;;;;;;;6087670;23;20010;-87
2022/05/07 05:11:34;;;;;;;41.78;31.70;;;;;;;;;;6084980;23;20507;-85
2022/05/07 05:14:00;;;;;;;38.90;30.35;;;;;;;;;;6089600;23;20026;-87
2022/05/07 05:16:29;;;;;;;39.28;29.75;;;;;;;;;;6094080;23;20053;-87
2022/05/07 05:18:56;;;;;;;43.40;30.00;;;;;;;;;;6089899;23;20018;-86
2022/05/07 05:21:22;;;;;;;39.38;30.15;;;;;;;;;;6090266;23;20586;-85
2022/05/07 05:23:48;;;;;;;40.75;33.10;;;;;;;;;;6112249;23;20033;-87
2022/05/07 05:26:14;;;;;;;36.55;29.65;;;;;;;;;;6093547;23;20022;-86
2022/05/07 05:28:42;;;;;;;43.22;31.70;;;;;;;;;;6092888;23;20540;-86
2022/05/07 05:31:09;;;;;;;41.08;32.33;;;;;;;;;;6091680;23;20022;-85
2022/05/07 05:33:35;;;;;;;38.35;31.45;;;;;;;;;;6091589;23;20502;-86
2022/05/07 05:36:01;;;;;;;37.20;29.70;;;;;;;;;;6092909;23;20018;-85
2022/05/07 05:38:27;;;;;;;37.67;28.65;;;;;;;;;;6092804;23;20014;-86
2022/05/07 05:40:53;;;;;;;40.92;31.02;;;;;;;;;;6090085;23;20010;-87
2022/05/07 05:43:19;;;;;;;41.97;31.38;;;;;;;;;;6089230;23;20568;-86
2022/05/07 05:45:46;;;;;;;39.47;30.88;;;;;;;;;;6087839;23;20058;-85
2022/05/07 05:48:13;;;;;;;41.40;32.38;;;;;;;;;;6089779;23;20458;-87
2022/05/07 05:50:39;;;;;;;43.90;31.83;;;;;;;;;;6091853;23;20021;-87
2022/05/07 05:53:06;;;;;;;39.88;30.80;;;;;;;;;;6090632;23;20053;-85
2022/05/07 05:55:33;;;;;;;40.72;31.65;;;;;;;;;;6093889;23;20141;-86
2022/05/07 05:57:59;;;;;;;45.10;31.98;;;;;;;;;;6112219;23;20022;-86
2022/05/07 06:00:25;;;;;;;45.50;31.92;;;;;;;;;;6085835;23;20022;-85
2022/05/07 06:02:52;;;;;;;39.78;30.73;;;;;;;;;;6088379;23;20021;-87
2022/05/07 06:05:19;;;;;;;39.13;29.98;;;;;;;;;;6087827;23;20907;-85
2022/05/07 06:07:45;;;;;;;40.55;30.98;;;;;;;;;;6113153;23;20088;-86
2022/05/07 06:10:11;;;;;;;36.90;29.27;;;;;;;;;;6085404;23;20359;-86
2022/05/07 06:12:37;;;;;;;37.28;30.58;;;;;;;;;;6090250;23;20466;-87
2022/05/07 06:15:05;;;;;;;40.55;30.80;;;;;;;;;;6087604;23;20014;-84
2022/05/07 06:17:31;;;;;;;38.95;30.52;;;;;;;;;;6111067;23;20068;-85
2022/05/07 06:19:58;;;;;;;42.40;31.40;;;;;;;;;;6086950;23;20045;-84
2022/05/07 06:22:24;;;;;;;39.65;31.85;;;;;;;;;;6085832;23;20017;-83
2022/05/07 06:27:34;;;;;;;43.63;32.10;;;;;;;;;;6086800;23;20022;-87
2022/05/07 06:30:01;;;;;;;41.70;30.10;;;;;;;;;;6086234;23;20076;-86
2022/05/07 06:32:32;;;;;;;39.28;28.98;;;;;;;;;;6113652;23;20022;-87
2022/05/07 06:34:58;;;;;;;40.55;29.75;;;;;;;;;;6086877;23;20739;-86
2022/05/07 06:37:24;;;;;;;36.70;29.60;;;;;;;;;;6085484;23;20017;-86
2022/05/07 06:39:50;;;;;;;35.60;29.13;;;;;;;;;;6088156;23;20489;-86
2022/05/07 06:42:16;;;;;;;40.30;28.23;;;;;;;;;;6090765;23;20022;-84
2022/05/07 06:44:42;;;;;;;36.75;26.90;;;;;;;;;;6091026;23;20025;-86
2022/05/07 06:47:08;;;;;;;33.47;28.25;;;19.20;86.80;;;;;;6088858;23;20014;-86
2022/05/07 06:49:34;;;;;;;36.58;27.63;;;14.50;99.90;;;;;;6090255;23;20387;-85
2022/05/07 06:51:59;;;;;;;37.55;26.75;;;14.50;99.90;;;;;;6115043;23;20073;-86
2022/05/07 06:54:26;;;;;;;38.60;27.48;;;;;;;;;;6044070;23;20021;-83
2022/05/07 06:56:52;;;;;;;33.03;26.52;;;;;;;;;;6095650;23;20165;-86
2022/05/07 06:59:18;;;;;;;32.25;25.58;;;;;;;;;;6064308;23;20018;-85
2022/05/07 07:01:44;;;;;;;35.58;25.55;;;;;;;;;;6088059;23;20014;-86
2022/05/07 07:04:10;;;;;;;34.30;25.95;;;;;;;;;;6085731;23;20528;-85
2022/05/07 07:06:36;;;;;;;28.67;24.75;;;;;;;;;;6110892;23;20021;-87
2022/05/07 07:09:03;;;;;;;32.15;24.88;;;;;;;;;;6086232;23;20045;-86
2022/05/07 07:11:29;;;;;;;35.92;26.08;;;;;;;;;;6079102;23;20021;-85
2022/05/07 07:13:55;;;;;;;30.27;23.50;;;;;;;;;;6086237;23;20021;-84
2022/05/07 07:16:22;;;;;;;32.58;25.08;;;;;;;;;;6083597;23;20069;-84
2022/05/07 07:18:48;;;;;;;34.60;25.05;;;;;;;;;;6065868;23;20017;-86
2022/05/07 07:21:14;;;;;;;33.25;25.65;;;;;;;;;;6087666;23;20018;-86
2022/05/07 07:23:40;;;;;;;33.00;25.27;;;;;;;;;;6085385;23;20081;-86
2022/05/07 07:26:06;;;;;;;31.20;23.73;;;;;;;;;;6088990;23;20010;-86
2022/05/07 07:28:33;;;;;;;32.72;25.08;;;;;;;;;;6089839;23;20018;-85
2022/05/07 07:30:59;;;;;;;27.20;22.27;;;;;;;;;;6090306;23;20017;-86
2022/05/07 07:33:25;;;;;;;31.20;22.67;;;;;;;;;;6090026;23;20069;-87
2022/05/07 07:35:51;;;;;;;32.67;24.40;;;;;;;;;;6088959;23;20073;-85
2022/05/07 07:38:17;;;;;;;34.17;24.52;;;;;;;;;;6113784;23;20479;-86
2022/05/07 07:40:50;;;;;;;32.80;24.67;;;;;;;;;;6084082;23;20021;-84
2022/05/07 07:43:16;;;;;;;33.30;25.88;;;;;;;;;;6086212;23;20036;-84
2022/05/07 07:48:27;;;;;;;32.67;25.85;;;;;;;;;;6065062;23;20351;-84
2022/05/07 07:50:53;;;;;;;31.88;23.65;;;;;;;;;;6105338;23;20021;-83
2022/05/07 07:53:22;;;;;;;34.72;25.23;;;;;;;;;;6082204;23;20014;-85
2022/05/07 07:55:48;;;;;;;28.42;22.63;;;;;;;;;;6092019;23;20018;-87
2022/05/07 07:58:15;;;;;;;35.08;23.15;;;;;;;;;;6081465;23;20022;-86
2022/05/07 08:00:44;;;;;;;33.70;22.40;;;;;;;;;;6086175;23;20902;-86
2022/05/07 08:03:18;;;;;;;25.30;21.20;;;;;;;;;;6086621;23;20021;-84
2022/05/07 08:05:45;;;;;;;27.70;19.05;;;;;;;;;;6093101;23;20014;-85
2022/05/07 08:13:43;;;;;;;24.10;15.30;;;;;;;;;;6115987;23;20021;-87
2022/05/07 08:16:09;;;;;;;24.10;14.60;;;;;;;;;;6116160;23;20021;-85
2022/05/07 08:18:36;;;;;;;23.35;16.30;;;;;;;;;;6087764;23;20053;-87
2022/05/07 08:21:02;;;;;;;23.55;15.68;;;;;;;;;;6114918;23;20044;-88
2022/05/07 08:23:29;;;;;;;24.30;17.00;;;;;;;;;;6089587;23;20101;-85
2022/05/07 08:25:55;;;;;;;24.08;16.65;;;;;;;;;;6117114;23;20411;-87
2022/05/07 08:28:24;;;;;;;25.20;14.85;;;;;;;;;;6092028;23;20050;-85
2022/05/07 08:30:50;;;;;;;21.63;15.27;;;;;;;;;;6086470;23;20009;-86
2022/05/07 08:33:20;;;;;;;24.45;16.67;;;;;;;;;;6089828;23;20018;-85
2022/05/07 08:35:46;;;;;;;26.15;16.90;;;14.60;99.90;;;;;;6082551;23;20026;-84
2022/05/07 08:38:12;;;;;;;21.58;15.35;;;;;;;;;;6061087;23;20022;-84
2022/05/07 08:40:41;;;;;;;20.15;14.60;;;;;;;;;;6078243;23;20022;-84
2022/05/07 08:43:08;;;;;;;25.67;14.40;;;;;;;;;;6081241;23;20010;-87
2022/05/07 08:45:39;;;;;;;26.00;14.38;;;;;;;;;;6081672;23;20022;-85
2022/05/07 08:48:10;;;;;;;19.33;13.75;;;;;;;;;;6084280;23;20062;-85
2022/05/07 08:50:40;;;;;;;22.88;14.30;;;;;;;;;;6107767;23;20020;-83
2022/05/07 08:53:07;;;;;;;18.80;14.50;;;;;;;;;;6061643;23;20018;-86
2022/05/07 08:55:33;;;;;;;23.77;15.10;;;;;;;;;;6086563;23;20020;-86
2022/05/07 08:58:02;;;;;;;25.33;14.02;;;;;;;;;;6089508;23;20102;-86
2022/05/07 09:00:50;;;;;;;;;;;;;;;;;;;;;
2022/05/07 09:04:33;;;;;;;22.45;14.25;;;;;;;;;;6113730;23;20010;-85
2022/05/07 09:07:03;;;;;;;21.80;14.38;;;;;;;;;;6111412;23;20026;-85
2022/05/07 09:09:35;;;;;;;22.15;13.85;;;;;;;;;;6088356;23;20025;-84
2022/05/07 09:12:22;;;;;;;21.50;14.85;;;;;;;;;;6105111;23;20072;-84
2022/05/07 09:15:24;;;;;;;22.67;14.55;;;;;;;;;;6084687;23;20048;-86
2022/05/07 09:17:53;;;;;;;20.45;14.35;;;;;;;;;;6064642;23;20126;-86
2022/05/07 09:20:45;;;;;;;24.10;14.88;;;;;;;;;;6088076;23;20486;-86
2022/05/07 09:23:52;;;;;;;22.00;14.32;;;;;;;;;;6052550;23;20018;-86
2022/05/07 09:27:04;;;;;;;21.27;14.85;;;;;;;;;;6113121;23;20466;-86
2022/05/07 09:29:34;;;;;;;19.55;14.27;;;;;;;;;;6080751;23;20325;-87
2022/05/07 09:32:11;;;;;;;20.15;14.23;;;;;;;;;;6084936;23;20057;-87
2022/05/07 09:37:44;;;;;;;20.10;14.38;;;;;;;;;;6088819;23;20024;-87
2022/05/07 09:40:12;;;;;;;21.92;14.20;;;;;;;;;;6088133;23;20069;-87
2022/05/07 09:42:39;;;;;;;23.63;14.13;;;;;;;;;;6083808;23;20014;-87
2022/05/07 09:45:30;;;;;;;20.52;13.63;;;;;;;;;;6091823;23;20018;-86
2022/05/07 09:52:09;;;;;;;19.35;13.18;;;;;;;;;;6114989;23;20018;-86
2022/05/07 10:04:40;;;;;;;24.77;12.10;;;;;;;;;;5964666;24;20034;-86
2022/05/07 10:07:24;;;;;;;16.98;11.73;;;;;;;;;;6058050;23;20037;-86
2022/05/07 10:10:28;;;;;;;22.00;12.25;;;;;;;;;;6078555;23;20022;-86
2022/05/07 10:13:42;;;;;;;21.30;12.57;;;;;;;;;;6026634;23;20159;-86
2022/05/07 10:16:28;;;;;;;18.23;12.63;;;;;;;;;;6044396;23;20534;-86
2022/05/07 10:19:32;;;;;;;19.08;13.02;;;;;;;;;;6083946;23;20139;-86
2022/05/07 10:22:50;;;;;;;;;;;;;;;;;;;;;
2022/05/07 10:25:20;;;;;;;21.35;14.05;;;;;;;;;;5968424;23;20046;-86
2022/05/07 10:27:51;;;;;;;28.80;17.65;;;;;;;;;;5977685;23;20016;-87
2022/05/07 10:30:17;;;;;;;27.17;17.83;;;;;;;;;;5977074;23;20047;-86
2022/05/07 10:32:49;;;;;;;27.45;17.75;;;;;;;;;;5974394;23;20030;-86
2022/05/07 10:35:35;;;;;;;27.10;19.92;;;;;;;;;;6001026;23;20342;-85
2022/05/07 10:38:13;;;;;;;25.33;19.55;;;;;;;;;;6054200;23;20030;-86
2022/05/07 10:41:11;;;;;;;27.42;19.25;;;17.50;99.90;;;;;;6025659;23;20022;-86
2022/05/07 10:43:39;;;;;;;24.23;18.10;;;;;;;;;;5957766;23;20615;-86
2022/05/07 10:46:06;;;;;;;19.85;15.60;;;;;;;;;;6021350;23;20463;-84
2022/05/07 10:48:43;;;;;;;26.88;17.50;;;;;;;;;;6006252;23;20046;-87
2022/05/07 10:51:17;;;;;;;26.20;17.40;;;;;;;;;;6032804;23;20022;-86
2022/05/07 10:53:46;;;;;;;24.90;17.88;;;;;;;;;;6074356;23;20049;-85
2022/05/07 10:56:17;;;;;;;22.45;16.33;;;;;;;;;;6084354;23;20014;-86
2022/05/07 10:58:47;;;;;;;26.77;15.77;;;;;;;;;;6089637;23;20552;-85
2022/05/07 11:01:13;;;;;;;25.15;14.80;;;;;;;;;;6115399;23;20014;-83
2022/05/07 11:03:39;;;;;;;24.08;15.02;;;;;;;;;;6087567;23;20014;-84
2022/05/07 11:06:06;;;;;;;23.92;15.63;;;;;;;;;;6086223;23;20065;-85
2022/05/07 11:08:32;;;;;;;22.95;16.00;;;19.20;99.90;;;;;;6089561;23;20096;-85
2022/05/07 11:11:08;;;;;;;23.23;17.45;;;19.20;99.90;;;;;;6112550;23;20535;-84
2022/05/07 11:13:54;;;;;;;22.20;16.90;;;19.20;99.90;;;;;;6107879;23;20018;-85
2022/05/07 11:16:21;;;;;;;31.73;17.17;;;19.30;99.90;;;;;;6109612;23;20096;-84
2022/05/07 11:18:52;;;;;;;22.42;16.60;;;19.30;99.90;;;;;;6113658;23;20021;-85
2022/05/07 11:21:23;;;;;;;24.13;15.40;;;19.40;99.90;;;;;;6069697;23;20014;-84
2022/05/07 11:24:01;;;;;;;29.77;18.05;;;;;;;;;;6117521;23;20014;-84
2022/05/07 11:26:28;;;;;;;20.42;16.60;;;;;;;;;;6086953;23;20016;-85
2022/05/07 11:28:54;;;;;;;23.30;16.15;;;19.40;99.90;;;;;;6088471;23;20018;-86
2022/05/07 11:31:32;;;;;;;20.17;15.30;;;19.50;99.90;;;;;;6064679;23;20077;-86
2022/05/07 11:34:03;;;;;;;23.08;17.48;;;19.50;99.90;;;;;;6116457;23;20014;-86
2022/05/07 11:36:29;;;;;;;24.50;16.42;;;19.60;99.90;;;;;;6111542;23;20013;-86
2022/05/07 11:39:00;;;;;;;23.77;16.33;;;19.60;99.90;;;;;;6111487;23;20010;-86
2022/05/07 11:41:25;;;;;;;24.02;16.58;;;19.60;99.00;;;;;;6115141;23;20021;-87
2022/05/07 11:46:56;;;;;;;26.02;16.27;;;19.70;99.90;;;;;;6092987;23;20456;-87
2022/05/07 11:49:34;;;;;;;21.85;15.93;;;19.80;99.90;;;;;;6109907;23;20494;-86
2022/05/07 11:52:10;;;;;;;19.67;15.57;;;19.90;98.30;;;;;;6109765;23;20365;-88
2022/05/07 11:54:47;;;;;;;19.23;15.10;;;19.90;97.00;;;;;;6089176;23;20018;-88
2022/05/07 11:57:13;;;;;;;23.35;15.93;;;20.00;97.30;;;;;;6118887;23;20014;-87
2022/05/07 11:59:43;;;;;;;22.52;16.58;;;20.00;97.80;;;;;;6062448;23;20021;-87
2022/05/07 12:02:12;;;;;;;26.25;15.90;;;20.00;98.30;;;;;;6115828;23;20081;-86
2022/05/07 12:04:38;;;;;;;32.17;22.33;;;;;;;;;;6045234;23;20041;-88
2022/05/07 12:07:04;;;;;;;24.15;19.50;;;;;;;;;;6117649;23;20014;-89
2022/05/07 12:09:33;;;;;;;31.17;22.40;;;;;;;;;;6084341;23;20018;-86
2022/05/07 12:11:58;;;;;;;33.38;21.48;;;20.10;97.50;;;;;;6087703;23;20018;-87
2022/05/07 12:14:24;;;;;;;28.65;21.55;;;;;;;;;;6035897;23;20024;-88
2022/05/07 12:19:35;;;;;;;32.60;23.73;;;;;;;;;;6151700;23;20526;-87
2022/05/07 12:30:15;;;;;;;32.72;23.38;;;;;;;;;;6152753;23;20017;-87
2022/05/07 12:32:44;;;;;;;32.58;24.83;;;;;;;;;;6101103;23;20013;-85
2022/05/07 12:35:11;;;;;;;32.85;22.80;;;;;;;;;;6128791;23;20051;-87
2022/05/07 12:37:39;;;;;;;34.92;23.52;;;;;;;;;;6103681;23;20223;-86
2022/05/07 12:40:07;;;;;;;32.95;21.92;;;;;;;;;;6105387;23;20081;-85
2022/05/07 12:42:34;;;;;;;29.30;20.83;;;;;;;;;;6126570;23;20036;-88
2022/05/07 12:45:01;;;;;;;31.92;23.42;;;;;;;;;;6130693;23;20009;-86
2022/05/07 12:47:28;;;;;;;30.15;22.48;;;;;;;;;;6104569;23;20029;-86
2022/05/07 12:49:54;;;;;;;34.63;23.55;;;20.00;99.90;;;;;;6103230;23;20009;-88
2022/05/07 12:52:23;;;;;;;36.72;25.83;;;19.50;99.90;;;;;;6100643;23;20080;-85
2022/05/07 12:54:57;;;;;;;35.53;25.60;;;19.40;99.90;;;;;;6128917;23;20016;-86
2022/05/07 12:57:23;;;;;;;41.58;26.48;;;19.40;99.90;;;;;;6100452;23;20017;-85
2022/05/07 12:59:49;;;;;;;35.78;23.75;;;19.50;99.90;;;;;;6107091;23;20020;-86
2022/05/07 13:02:15;;;;;;;59.05;26.33;;;;;;;;;;6103178;23;20080;-88
2022/05/07 13:04:41;;;;;;;35.53;25.17;;;;;;;;;;6105043;23;20346;-85
2022/05/07 13:07:08;;;;;;;40.72;26.73;;;;;;;;;;6124912;23;20016;-86
2022/05/07 13:09:34;;;;;;;37.85;25.90;;;;;;;;;;6104565;23;20013;-86
2022/05/07 13:12:02;;;;;;;34.97;25.38;;;;;;;;;;6103461;23;20028;-87
2022/05/07 13:14:30;;;;;;;34.40;24.50;;;;;;;;;;6103557;23;20020;-84
2022/05/07 13:16:56;;;;;;;39.03;25.33;;;;;;;;;;6104793;23;20080;-86
2022/05/07 13:19:23;;;;;;;35.30;23.38;;;;;;;;;;6127883;23;20024;-85
2022/05/07 13:21:49;;;;;;;35.17;23.30;;;;;;;;;;6104350;23;20028;-85
2022/05/07 13:24:16;;;;;;;28.95;21.27;;;;;;;;;;6128137;23;20286;-85
2022/05/07 13:26:42;;;;;;;31.83;23.17;;;;;;;;;;6101628;23;20009;-85
2022/05/07 13:29:09;;;;;;;29.33;21.65;;;;;;;;;;6128114;23;20341;-86
2022/05/07 13:31:37;;;;;;;27.45;20.25;;;;;;;;;;6128480;23;20048;-85
2022/05/07 13:34:04;;;;;;;28.23;18.48;;;;;;;;;;6127191;23;20010;-85
2022/05/07 13:36:30;;;;;;;25.02;18.20;;;;;;;;;;6125752;23;20017;-85
2022/05/07 13:38:58;;;;;;;27.40;17.55;;;;;;;;;;6126668;23;20041;-88
2022/05/07 13:41:26;;;;;;;24.55;18.13;;;;;;;;;;6105588;23;20013;-86
2022/05/07 13:43:53;;;;;;;30.98;18.10;;;;;;;;;;6104149;23;20099;-89
2022/05/07 13:46:19;;;;;;;27.83;17.45;;;;;;;;;;6103954;23;20442;-89
2022/05/07 13:48:45;;;;;;;24.77;16.40;;;;;;;;;;6101230;23;20041;-88
2022/05/07 13:51:12;;;;;;;26.05;16.10;;;;;;;;;;6130739;23;20009;-86
2022/05/07 13:53:38;;;;;;;24.38;15.63;;;;;;;;;;6128283;23;20383;-88
2022/05/07 13:56:04;;;;;;;24.40;13.05;;;;;;;;;;6104488;23;20079;-87
2022/05/07 13:58:30;;;;;;;23.63;14.43;;;;;;;;;;6100922;23;20087;-85
2022/05/07 14:00:56;;;;;;;21.55;13.63;;;;;;;;;;6103860;23;20017;-86
2022/05/07 14:03:23;;;;;;;19.38;13.25;;;;;;;;;;6127002;23;20017;-85
2022/05/07 14:05:50;;;;;;;17.88;12.82;;;;;;;;;;6128345;23;20159;-85
2022/05/07 14:08:16;;;;;;;21.90;13.70;;;;;;;;;;6103290;23;20032;-87
2022/05/07 14:10:42;;;;;;;18.55;13.75;;;;;;;;;;6105804;23;20013;-85
2022/05/07 14:13:09;;;;;;;23.73;14.35;;;;;;;;;;6130758;23;20470;-87
2022/05/07 14:15:35;;;;;;;20.77;15.43;;;;;;;;;;6107712;23;20056;-86
2022/05/07 14:18:01;;;;;;;22.48;13.93;;;;;;;;;;6109748;23;20013;-86
2022/05/07 14:20:27;;;;;;;21.58;13.10;;;;;;;;;;6135750;23;20017;-89
2022/05/07 14:22:53;;;;;;;18.83;12.85;;;;;;;;;;6112216;23;20335;-88
2022/05/07 14:25:20;;;;;;;17.83;12.38;;;;;;;;;;6110083;23;20045;-86
2022/05/07 14:27:46;;;;;;;16.52;12.48;;;;;;;;;;6133331;23;20056;-86
2022/05/07 14:30:12;;;;;;;14.73;11.80;;;;;;;;;;6132842;23;20009;-87
2022/05/07 14:32:42;;;;;;;16.35;11.63;;;;;;;;;;6131172;23;20013;-87
2022/05/07 14:35:12;;;;;;;21.15;11.60;;;;;;;;;;6108191;23;20051;-86
2022/05/07 14:37:38;;;;;;;18.17;12.05;;;;;;;;;;6129633;23;20021;-86
2022/05/07 14:42:49;;;;;;;13.77;9.77;;;;;;;;;;6154013;23;20017;-88
2022/05/07 14:45:15;;;;;;;13.00;9.27;;;;;;;;;;6130251;23;20031;-86
2022/05/07 14:47:41;;;;;;;18.25;8.10;;;;;;;;;;6126345;23;20016;-87
2022/05/07 14:50:07;;;;;;;10.45;7.78;;;;;;;;;;6105810;23;20071;-85
2022/05/07 14:52:33;;;;;;;11.15;7.80;;;;;;;;;;6105497;23;20013;-85
2022/05/07 14:55:00;;;;;;;8.23;6.15;;;;;;;;;;6107363;23;20017;-87
2022/05/07 14:57:26;;;;;;;6.88;4.72;;;;;;;;;;6108566;23;20077;-87
2022/05/07 14:59:52;;;;;;;8.85;5.65;;;;;;;;;;6105811;23;20012;-85
2022/05/07 15:02:18;;;;;;;9.02;4.40;;;;;;;;;;6129266;23;20017;-86
2022/05/07 15:04:44;;;;;;;7.28;4.72;;;;;;;;;;6105540;23;20516;-88
2022/05/07 15:07:10;;;;;;;9.70;4.20;;;;;;;;;;6104269;23;20016;-85
2022/05/07 15:12:22;;;;;;;8.25;3.75;;;;;;;;;;6133825;23;20480;-85
2022/05/07 15:14:49;;;;;;;4.80;4.07;;;;;;;;;;6129365;23;20013;-86
2022/05/07 15:17:15;;;;;;;9.65;3.88;;;;;;;;;;6128459;23;20083;-87
2022/05/07 15:19:41;;;;;;;6.70;4.03;;;;;;;;;;6129952;23;20013;-87
2022/05/07 15:22:07;;;;;;;5.05;3.58;;;;;;;;;;6102697;23;20024;-85
2022/05/07 15:24:34;;;;;;;8.27;4.15;;;;;;;;;;6103474;23;20534;-85
2022/05/07 15:27:00;;;;;;;6.18;3.10;;;;;;;;;;6104833;23;20020;-88
2022/05/07 15:29:27;;;;;;;6.97;3.95;;;;;;;;;;6130142;23;20406;-87